createdAt,value
2023-05-19T00:00:42.861Z,94965.00
2023-05-19T00:01:42.927Z,94967.00
2023-05-19T00:02:43.028Z,94963.00
2023-05-19T00:03:43.056Z,94965.00
2023-05-19T00:04:43.069Z,94963.00
2023-05-19T00:05:43.156Z,94963.00
2023-05-19T00:06:43.177Z,94961.00
2023-05-19T00:07:43.223Z,94961.00
2023-05-19T00:08:43.277Z,94961.00
2023-05-19T00:09:43.332Z,94961.00
2023-05-19T00:10:43.376Z,94959.00
2023-05-19T00:11:43.433Z,94959.00
2023-05-19T00:12:43.486Z,94961.00
2023-05-19T00:13:43.525Z,94961.00
2023-05-19T00:14:43.589Z,94959.00
2023-05-19T00:15:43.672Z,94959.00
2023-05-19T00:16:43.702Z,94957.00
2023-05-19T00:17:43.813Z,94957.00
2023-05-19T00:18:43.814Z,94959.00
2023-05-19T00:19:43.842Z,94957.00
2023-05-19T00:20:43.912Z,94961.00
2023-05-19T00:21:43.957Z,94959.00
2023-05-19T00:22:44.010Z,94957.00
2023-05-19T00:23:44.058Z,94959.00
2023-05-19T00:24:44.115Z,94959.00
2023-05-19T00:25:44.166Z,94959.00
2023-05-19T00:26:44.219Z,94959.00
2023-05-19T00:27:44.279Z,94961.00
2023-05-19T00:28:44.316Z,94959.00
2023-05-19T00:29:44.364Z,94959.00
2023-05-19T00:30:44.434Z,94959.00
2023-05-19T00:31:44.516Z,94961.00
2023-05-19T00:32:44.567Z,94961.00
2023-05-19T00:33:44.601Z,94961.00
2023-05-19T00:34:44.627Z,94961.00
2023-05-19T00:35:44.681Z,94963.00
2023-05-19T00:36:44.740Z,94961.00
2023-05-19T00:37:44.784Z,94963.00
2023-05-19T00:38:44.853Z,94963.00
2023-05-19T00:39:44.895Z,94961.00
2023-05-19T00:40:44.954Z,94959.00
2023-05-19T00:41:45.016Z,94957.00
2023-05-19T00:42:45.055Z,94957.00
2023-05-19T00:43:45.226Z,94957.00
2023-05-19T00:44:45.162Z,94955.00
2023-05-19T00:45:45.212Z,94953.00
2023-05-19T00:46:45.301Z,94953.00
2023-05-19T00:47:45.344Z,94953.00
2023-05-19T00:48:45.403Z,94951.00
2023-05-19T00:49:45.431Z,94953.00
2023-05-19T00:50:45.480Z,94951.00
2023-05-19T00:51:45.555Z,94949.00
2023-05-19T00:52:45.588Z,94947.00
2023-05-19T00:53:45.659Z,94949.00
2023-05-19T00:54:45.699Z,94949.00
2023-05-19T00:55:45.744Z,94951.00
2023-05-19T00:56:45.805Z,94951.00
2023-05-19T00:57:45.831Z,94951.00
2023-05-19T00:58:45.892Z,94951.00
2023-05-19T00:59:45.939Z,94951.00
2023-05-19T01:00:46.011Z,94949.00
2023-05-19T01:01:46.047Z,94949.00
2023-05-19T01:02:46.250Z,94949.00
2023-05-19T01:03:46.282Z,94951.00
2023-05-19T01:04:46.181Z,94951.00
2023-05-19T01:05:46.222Z,94949.00
2023-05-19T01:06:46.277Z,94949.00
2023-05-19T01:07:46.324Z,94949.00
2023-05-19T01:08:46.370Z,94947.00
2023-05-19T01:09:46.415Z,94945.00
2023-05-19T01:10:46.466Z,94943.00
2023-05-19T01:11:46.523Z,94945.00
2023-05-19T01:12:46.574Z,94947.00
2023-05-19T01:13:46.621Z,94941.00
2023-05-19T01:14:46.682Z,94945.00
2023-05-19T01:15:46.720Z,94945.00
2023-05-19T01:16:46.878Z,94945.00
2023-05-19T01:17:46.879Z,94945.00
2023-05-19T01:18:46.955Z,94947.00
2023-05-19T01:19:46.939Z,94947.00
2023-05-19T01:20:46.999Z,94949.00
2023-05-19T01:21:47.043Z,94947.00
2023-05-19T01:22:47.099Z,94947.00
2023-05-19T01:23:47.138Z,94945.00
2023-05-19T01:24:47.205Z,94941.00
2023-05-19T01:25:47.248Z,94943.00
2023-05-19T01:26:47.316Z,94945.00
2023-05-19T01:27:47.371Z,94943.00
2023-05-19T01:28:47.430Z,94943.00
2023-05-19T01:29:47.456Z,94941.00
2023-05-19T01:30:47.506Z,94941.00
2023-05-19T01:31:47.609Z,94941.00
2023-05-19T01:32:47.633Z,94941.00
2023-05-19T01:33:47.664Z,94939.00
2023-05-19T01:34:47.711Z,94941.00
2023-05-19T01:35:47.779Z,94941.00
2023-05-19T01:36:47.810Z,94941.00
2023-05-19T01:37:47.882Z,94943.00
2023-05-19T01:38:47.935Z,94943.00
2023-05-19T01:39:47.974Z,94945.00
2023-05-19T01:40:48.030Z,94945.00
2023-05-19T01:41:48.093Z,94941.00
2023-05-19T01:42:48.148Z,94945.00
2023-05-19T01:43:48.197Z,94945.00
2023-05-19T01:44:48.249Z,94947.00
2023-05-19T01:45:48.333Z,94943.00
2023-05-19T01:46:48.383Z,94945.00
2023-05-19T01:47:48.425Z,94945.00
2023-05-19T01:48:48.469Z,94945.00
2023-05-19T01:49:48.515Z,94943.00
2023-05-19T01:50:48.588Z,94945.00
2023-05-19T01:51:48.636Z,94945.00
2023-05-19T01:52:48.689Z,94943.00
2023-05-19T01:53:48.740Z,94943.00
2023-05-19T01:54:48.807Z,94943.00
2023-05-19T01:55:48.846Z,94945.00
2023-05-19T01:56:48.900Z,94947.00
2023-05-19T01:57:48.962Z,94947.00
2023-05-19T01:58:49.010Z,94947.00
2023-05-19T01:59:49.063Z,94949.00
2023-05-19T02:00:49.123Z,94949.00
2023-05-19T02:01:49.176Z,94947.00
2023-05-19T02:02:49.270Z,94949.00
2023-05-19T02:03:49.282Z,94949.00
2023-05-19T02:04:49.443Z,94945.00
2023-05-19T02:05:49.429Z,94947.00
2023-05-19T02:06:49.465Z,94947.00
2023-05-19T02:07:49.578Z,94951.00
2023-05-19T02:08:49.563Z,94949.00
2023-05-19T02:09:49.616Z,94951.00
2023-05-19T02:10:49.677Z,94951.00
2023-05-19T02:11:49.759Z,94951.00
2023-05-19T02:12:49.805Z,94949.00
2023-05-19T02:13:49.850Z,94951.00
2023-05-19T02:14:49.924Z,94955.00
2023-05-19T02:15:50.016Z,94953.00
2023-05-19T02:16:50.038Z,94951.00
2023-05-19T02:17:50.099Z,94951.00
2023-05-19T02:18:50.197Z,94953.00
2023-05-19T02:19:50.197Z,94951.00
2023-05-19T02:20:50.257Z,94955.00
2023-05-19T02:21:50.304Z,94953.00
2023-05-19T02:22:50.368Z,94951.00
2023-05-19T02:23:50.432Z,94953.00
2023-05-19T02:24:50.490Z,94951.00
2023-05-19T02:25:50.542Z,94951.00
2023-05-19T02:26:50.613Z,94951.00
2023-05-19T02:27:50.653Z,94949.00
2023-05-19T02:28:50.717Z,94949.00
2023-05-19T02:29:50.781Z,94949.00
2023-05-19T02:30:50.828Z,94951.00
2023-05-19T02:31:51.093Z,94949.00
2023-05-19T02:32:50.961Z,94951.00
2023-05-19T02:33:51.003Z,94953.00
2023-05-19T02:34:51.089Z,94949.00
2023-05-19T02:35:51.123Z,94953.00
2023-05-19T02:36:51.193Z,94951.00
2023-05-19T02:37:51.259Z,94951.00
2023-05-19T02:38:51.316Z,94955.00
2023-05-19T02:39:51.381Z,94951.00
2023-05-19T02:40:51.446Z,94951.00
2023-05-19T02:41:51.513Z,94951.00
2023-05-19T02:42:51.565Z,94949.00
2023-05-19T02:43:51.631Z,94949.00
2023-05-19T02:44:51.696Z,94949.00
2023-05-19T02:45:51.760Z,94949.00
2023-05-19T02:46:51.857Z,94951.00
2023-05-19T02:47:51.899Z,94949.00
2023-05-19T02:48:51.944Z,94951.00
2023-05-19T02:49:51.989Z,94947.00
2023-05-19T02:50:52.073Z,94949.00
2023-05-19T02:51:52.113Z,94949.00
2023-05-19T02:52:52.158Z,94947.00
2023-05-19T02:53:52.229Z,94949.00
2023-05-19T02:54:52.289Z,94947.00
2023-05-19T02:55:52.361Z,94949.00
2023-05-19T02:56:52.419Z,94947.00
2023-05-19T02:57:52.475Z,94947.00
2023-05-19T02:58:52.515Z,94947.00
2023-05-19T02:59:52.580Z,94947.00
2023-05-19T03:00:52.646Z,94945.00
2023-05-19T03:01:52.735Z,94941.00
2023-05-19T03:02:52.785Z,94941.00
2023-05-19T03:03:52.962Z,94941.00
2023-05-19T03:04:52.848Z,94935.00
2023-05-19T03:05:52.907Z,94939.00
2023-05-19T03:06:52.989Z,94939.00
2023-05-19T03:07:53.032Z,94937.00
2023-05-19T03:08:53.097Z,94939.00
2023-05-19T03:09:53.161Z,94939.00
2023-05-19T03:10:53.216Z,94937.00
2023-05-19T03:11:53.280Z,94937.00
2023-05-19T03:12:53.330Z,94937.00
2023-05-19T03:13:53.380Z,94935.00
2023-05-19T03:14:53.433Z,94937.00
2023-05-19T03:15:53.566Z,94935.00
2023-05-19T03:16:53.770Z,94933.00
2023-05-19T03:17:53.720Z,94935.00
2023-05-19T03:18:53.737Z,94935.00
2023-05-19T03:19:53.739Z,94935.00
2023-05-19T03:20:53.808Z,94935.00
2023-05-19T03:21:53.853Z,94935.00
2023-05-19T03:22:53.908Z,94935.00
2023-05-19T03:23:53.977Z,94937.00
2023-05-19T03:24:54.026Z,94933.00
2023-05-19T03:25:54.067Z,94927.00
2023-05-19T03:26:54.138Z,94925.00
2023-05-19T03:27:54.191Z,94927.00
2023-05-19T03:28:54.265Z,94933.00
2023-05-19T03:29:54.322Z,94925.00
2023-05-19T03:30:54.367Z,94933.00
2023-05-19T03:31:54.449Z,94927.00
2023-05-19T03:32:54.550Z,94927.00
2023-05-19T03:33:54.547Z,94927.00
2023-05-19T03:34:54.598Z,94927.00
2023-05-19T03:35:54.666Z,94929.00
2023-05-19T03:36:54.729Z,94927.00
2023-05-19T03:37:54.784Z,94927.00
2023-05-19T03:38:54.848Z,94929.00
2023-05-19T03:39:54.916Z,94927.00
2023-05-19T03:40:54.967Z,94924.00
2023-05-19T03:41:55.053Z,94924.00
2023-05-19T03:42:55.078Z,94924.00
2023-05-19T03:43:55.135Z,94924.00
2023-05-19T03:44:55.206Z,94922.00
2023-05-19T03:45:55.301Z,94922.00
2023-05-19T03:46:55.317Z,94922.00
2023-05-19T03:47:55.405Z,94920.00
2023-05-19T03:48:55.461Z,94920.00
2023-05-19T03:49:55.486Z,94922.00
2023-05-19T03:50:55.574Z,94925.00
2023-05-19T03:51:55.629Z,94922.00
2023-05-19T03:52:55.677Z,94927.00
2023-05-19T03:53:55.744Z,94922.00
2023-05-19T03:54:55.821Z,94929.00
2023-05-19T03:55:55.876Z,94931.00
2023-05-19T03:56:55.929Z,94929.00
2023-05-19T03:57:55.981Z,94931.00
2023-05-19T03:58:56.046Z,94933.00
2023-05-19T03:59:56.099Z,94935.00
2023-05-19T04:00:56.183Z,94937.00
2023-05-19T04:01:56.263Z,94933.00
2023-05-19T04:02:56.390Z,94935.00
2023-05-19T04:03:56.442Z,94933.00
2023-05-19T04:04:56.432Z,94933.00
2023-05-19T04:05:56.478Z,94931.00
2023-05-19T04:06:56.556Z,94927.00
2023-05-19T04:07:56.612Z,94931.00
2023-05-19T04:08:56.671Z,94927.00
2023-05-19T04:09:56.748Z,94925.00
2023-05-19T04:10:56.795Z,94925.00
2023-05-19T04:11:56.889Z,94924.00
2023-05-19T04:12:56.969Z,94924.00
2023-05-19T04:13:56.967Z,94925.00
2023-05-19T04:14:57.048Z,94927.00
2023-05-19T04:15:57.100Z,94929.00
2023-05-19T04:16:57.151Z,94929.00
2023-05-19T04:17:57.329Z,94927.00
2023-05-19T04:18:57.290Z,94929.00
2023-05-19T04:19:57.338Z,94929.00
2023-05-19T04:20:57.387Z,94929.00
2023-05-19T04:21:57.470Z,94929.00
2023-05-19T04:22:57.504Z,94931.00
2023-05-19T04:23:57.560Z,94927.00
2023-05-19T04:24:57.633Z,94927.00
2023-05-19T04:25:57.659Z,94925.00
2023-05-19T04:26:57.718Z,94925.00
2023-05-19T04:27:57.849Z,94929.00
2023-05-19T04:28:57.812Z,94935.00
2023-05-19T04:29:57.890Z,94933.00
2023-05-19T04:30:57.948Z,94935.00
2023-05-19T04:31:57.987Z,94937.00
2023-05-19T04:32:58.035Z,94935.00
2023-05-19T04:33:58.054Z,94935.00
2023-05-19T04:34:58.093Z,94933.00
2023-05-19T04:35:58.156Z,94935.00
2023-05-19T04:36:58.176Z,94937.00
2023-05-19T04:37:58.222Z,94939.00
2023-05-19T04:38:58.249Z,94941.00
2023-05-19T04:39:58.262Z,94939.00
2023-05-19T04:40:58.334Z,94941.00
2023-05-19T04:41:58.337Z,94939.00
2023-05-19T04:42:58.347Z,94941.00
2023-05-19T04:43:58.374Z,94943.00
2023-05-19T04:44:58.385Z,94941.00
2023-05-19T04:45:58.409Z,94937.00
2023-05-19T04:46:58.476Z,94941.00
2023-05-19T04:47:58.490Z,94937.00
2023-05-19T04:48:58.441Z,94939.00
2023-05-19T04:49:58.451Z,94939.00
2023-05-19T04:50:58.459Z,94935.00
2023-05-19T04:51:58.454Z,94937.00
2023-05-19T04:52:58.445Z,94941.00
2023-05-19T04:53:58.484Z,94945.00
2023-05-19T04:54:58.489Z,94941.00
2023-05-19T04:55:58.541Z,94939.00
2023-05-19T04:56:58.611Z,94943.00
2023-05-19T04:57:58.621Z,94943.00
2023-05-19T04:58:58.682Z,94945.00
2023-05-19T04:59:58.719Z,94943.00
2023-05-19T05:00:58.751Z,94945.00
2023-05-19T05:01:58.800Z,94945.00
2023-05-19T05:02:58.823Z,94941.00
2023-05-19T05:03:58.936Z,94939.00
2023-05-19T05:04:58.797Z,94939.00
2023-05-19T05:05:58.865Z,94937.00
2023-05-19T05:06:58.919Z,94933.00
2023-05-19T05:07:58.942Z,94935.00
2023-05-19T05:08:58.977Z,94935.00
2023-05-19T05:09:59.043Z,94935.00
2023-05-19T05:10:59.117Z,94935.00
2023-05-19T05:11:59.157Z,94935.00
2023-05-19T05:12:59.248Z,94935.00
2023-05-19T05:13:59.277Z,94933.00
2023-05-19T05:14:59.331Z,94937.00
2023-05-19T05:15:59.429Z,94935.00
2023-05-19T05:16:59.483Z,94935.00
2023-05-19T05:17:59.566Z,94935.00
2023-05-19T05:18:59.605Z,94937.00
2023-05-19T05:19:59.577Z,94935.00
2023-05-19T05:20:59.608Z,94937.00
2023-05-19T05:21:59.584Z,94941.00
2023-05-19T05:22:59.578Z,94941.00
2023-05-19T05:23:59.598Z,94939.00
2023-05-19T05:24:59.596Z,94937.00
2023-05-19T05:25:59.591Z,94935.00
2023-05-19T05:26:59.620Z,94935.00
2023-05-19T05:27:59.592Z,94933.00
2023-05-19T05:28:59.644Z,94937.00
2023-05-19T05:29:59.613Z,94937.00
2023-05-19T05:30:59.629Z,94937.00
2023-05-19T05:31:59.743Z,94937.00
2023-05-19T05:32:59.705Z,94937.00
2023-05-19T05:33:59.645Z,94939.00
2023-05-19T05:34:59.660Z,94939.00
2023-05-19T05:35:59.670Z,94937.00
2023-05-19T05:36:59.727Z,94933.00
2023-05-19T05:37:59.769Z,94933.00
2023-05-19T05:38:59.818Z,94929.00
2023-05-19T05:39:59.910Z,94933.00
2023-05-19T05:40:59.951Z,94931.00
2023-05-19T05:42:00.042Z,94933.00
2023-05-19T05:43:00.077Z,94935.00
2023-05-19T05:44:00.138Z,94935.00
2023-05-19T05:45:00.194Z,94935.00
2023-05-19T05:46:00.328Z,94937.00
2023-05-19T05:47:00.310Z,94939.00
2023-05-19T05:48:00.362Z,94937.00
2023-05-19T05:49:00.379Z,94935.00
2023-05-19T05:50:00.430Z,94935.00
2023-05-19T05:51:00.418Z,94933.00
2023-05-19T05:53:00.422Z,94933.00
2023-05-19T05:54:00.411Z,94933.00
2023-05-19T05:55:00.415Z,94935.00
2023-05-19T05:56:00.412Z,94933.00
2023-05-19T05:57:00.398Z,94933.00
2023-05-19T05:58:00.385Z,94931.00
2023-05-19T05:59:00.408Z,94933.00
2023-05-19T06:00:00.392Z,94931.00
2023-05-19T06:01:00.365Z,94931.00
2023-05-19T06:02:00.405Z,94931.00
2023-05-19T06:03:00.493Z,94933.00
2023-05-19T06:04:00.421Z,94931.00
2023-05-19T06:05:00.417Z,94931.00
2023-05-19T06:06:00.484Z,94931.00
2023-05-19T06:07:00.336Z,94933.00
2023-05-19T06:08:00.328Z,94929.00
2023-05-19T06:09:00.316Z,94929.00
2023-05-19T06:10:00.351Z,94931.00
2023-05-19T06:11:00.316Z,94929.00
2023-05-19T06:12:00.297Z,94927.00
2023-05-19T06:13:00.366Z,94929.00
2023-05-19T06:14:00.286Z,94929.00
2023-05-19T06:15:00.302Z,94931.00
2023-05-19T06:16:01.995Z,94931.00
2023-05-19T06:17:00.267Z,94931.00
2023-05-19T06:18:00.267Z,94933.00
2023-05-19T06:19:00.297Z,94933.00
2023-05-19T06:20:00.241Z,94935.00
2023-05-19T06:21:00.240Z,94933.00
2023-05-19T06:22:00.238Z,94935.00
2023-05-19T06:23:00.227Z,94935.00
2023-05-19T06:24:00.268Z,94931.00
2023-05-19T06:25:00.344Z,94933.00
2023-05-19T06:26:00.368Z,94927.00
2023-05-19T06:27:00.440Z,94925.00
2023-05-19T06:28:00.496Z,94925.00
2023-05-19T06:29:00.549Z,94925.00
2023-05-19T06:30:00.614Z,94925.00
2023-05-19T06:31:00.745Z,94925.00
2023-05-19T06:32:00.714Z,94925.00
2023-05-19T06:33:00.825Z,94925.00
2023-05-19T06:34:00.821Z,94927.00
2023-05-19T06:35:00.878Z,94925.00
2023-05-19T06:36:00.892Z,94924.00
2023-05-19T06:37:00.933Z,94924.00
2023-05-19T06:38:00.961Z,94922.00
2023-05-19T06:39:02.525Z,94922.00
2023-05-19T06:40:01.041Z,94922.00
2023-05-19T06:41:01.093Z,94924.00
2023-05-19T06:42:01.145Z,94922.00
2023-05-19T06:43:01.213Z,94920.00
2023-05-19T06:44:01.254Z,94920.00
2023-05-19T06:45:01.325Z,94920.00
2023-05-19T06:46:01.435Z,94922.00
2023-05-19T06:47:01.526Z,94924.00
2023-05-19T06:48:01.592Z,94922.00
2023-05-19T06:49:01.581Z,94924.00
2023-05-19T06:50:01.635Z,94922.00
2023-05-19T06:51:01.701Z,94918.00
2023-05-19T06:52:01.768Z,94922.00
2023-05-19T06:53:01.847Z,94916.00
2023-05-19T06:54:01.878Z,94918.00
2023-05-19T06:55:01.929Z,94922.00
2023-05-19T06:56:01.996Z,94920.00
2023-05-19T06:57:02.051Z,94920.00
2023-05-19T06:58:02.121Z,94918.00
2023-05-19T06:59:02.186Z,94918.00
2023-05-19T07:00:02.230Z,94916.00
2023-05-19T07:01:02.294Z,94918.00
2023-05-19T07:02:02.400Z,94920.00
2023-05-19T07:03:02.490Z,94920.00
2023-05-19T07:04:02.501Z,94918.00
2023-05-19T07:05:02.537Z,94922.00
2023-05-19T07:06:02.610Z,94920.00
2023-05-19T07:07:02.683Z,94920.00
2023-05-19T07:08:02.710Z,94920.00
2023-05-19T07:09:02.779Z,94920.00
2023-05-19T07:10:02.837Z,94918.00
2023-05-19T07:11:02.889Z,94920.00
2023-05-19T07:12:02.926Z,94920.00
2023-05-19T07:13:03.024Z,94922.00
2023-05-19T07:14:03.041Z,94918.00
2023-05-19T07:15:03.079Z,94914.00
2023-05-19T07:16:03.136Z,94916.00
2023-05-19T07:17:03.167Z,94912.00
2023-05-19T07:18:03.257Z,94910.00
2023-05-19T07:19:03.312Z,94910.00
2023-05-19T07:20:03.244Z,94910.00
2023-05-19T07:21:03.282Z,94908.00
2023-05-19T07:22:03.324Z,94908.00
2023-05-19T07:23:03.382Z,94908.00
2023-05-19T07:24:03.410Z,94906.00
2023-05-19T07:25:03.459Z,94904.00
2023-05-19T07:26:03.493Z,94904.00
2023-05-19T07:27:03.577Z,94900.00
2023-05-19T07:28:03.598Z,94898.00
2023-05-19T07:29:03.639Z,94896.00
2023-05-19T07:30:03.698Z,94896.00
2023-05-19T07:31:03.764Z,94896.00
2023-05-19T07:32:03.823Z,94886.00
2023-05-19T07:33:03.924Z,94886.00
2023-05-19T07:34:03.912Z,94886.00
2023-05-19T07:35:03.958Z,94886.00
2023-05-19T07:36:04.017Z,94886.00
2023-05-19T07:37:04.079Z,94884.00
2023-05-19T07:38:04.126Z,94884.00
2023-05-19T07:39:04.232Z,94884.00
2023-05-19T07:40:04.230Z,94884.00
2023-05-19T07:41:04.334Z,94884.00
2023-05-19T07:42:04.344Z,94884.00
2023-05-19T07:43:04.401Z,94880.00
2023-05-19T07:44:04.445Z,94880.00
2023-05-19T07:45:04.507Z,94878.00
2023-05-19T07:46:04.628Z,94878.00
2023-05-19T07:47:04.616Z,94876.00
2023-05-19T07:48:04.711Z,94876.00
2023-05-19T07:49:04.736Z,94876.00
2023-05-19T07:50:04.793Z,94878.00
2023-05-19T07:51:04.838Z,94876.00
2023-05-19T07:52:04.897Z,94872.00
2023-05-19T07:53:04.968Z,94872.00
2023-05-19T07:54:05.016Z,94871.00
2023-05-19T07:55:05.070Z,94869.00
2023-05-19T07:56:05.110Z,94869.00
2023-05-19T07:57:05.216Z,94871.00
2023-05-19T07:58:05.246Z,94871.00
2023-05-19T07:59:05.296Z,94871.00
2023-05-19T08:00:05.356Z,94869.00
2023-05-19T08:01:05.428Z,94867.00
2023-05-19T08:02:05.532Z,94867.00
2023-05-19T08:03:05.618Z,94871.00
2023-05-19T08:04:05.691Z,94869.00
2023-05-19T08:05:05.662Z,94867.00
2023-05-19T08:06:05.732Z,94869.00
2023-05-19T08:07:05.800Z,94869.00
2023-05-19T08:08:05.851Z,94867.00
2023-05-19T08:09:05.910Z,94865.00
2023-05-19T08:10:06.081Z,94865.00
2023-05-19T08:11:06.069Z,94865.00
2023-05-19T08:12:06.119Z,94861.00
2023-05-19T08:13:06.186Z,94865.00
2023-05-19T08:14:06.249Z,94863.00
2023-05-19T08:15:06.325Z,94863.00
2023-05-19T08:16:06.491Z,94861.00
2023-05-19T08:17:06.445Z,94861.00
2023-05-19T08:18:06.566Z,94861.00
2023-05-19T08:19:06.600Z,94861.00
2023-05-19T08:20:06.612Z,94857.00
2023-05-19T08:21:06.680Z,94859.00
2023-05-19T08:22:06.753Z,94857.00
2023-05-19T08:23:06.831Z,94857.00
2023-05-19T08:24:06.885Z,94857.00
2023-05-19T08:25:06.931Z,94855.00
2023-05-19T08:26:07.011Z,94855.00
2023-05-19T08:27:07.076Z,94857.00
2023-05-19T08:28:07.132Z,94851.00
2023-05-19T08:29:07.182Z,94849.00
2023-05-19T08:30:07.239Z,94849.00
2023-05-19T08:31:07.343Z,94849.00
2023-05-19T08:32:07.348Z,94847.00
2023-05-19T08:33:07.486Z,94845.00
2023-05-19T08:34:07.485Z,94847.00
2023-05-19T08:35:07.534Z,94845.00
2023-05-19T08:36:07.599Z,94847.00
2023-05-19T08:37:07.658Z,94843.00
2023-05-19T08:38:07.714Z,94843.00
2023-05-19T08:39:07.769Z,94843.00
2023-05-19T08:40:07.828Z,94843.00
2023-05-19T08:41:07.882Z,94843.00
2023-05-19T08:42:07.947Z,94841.00
2023-05-19T08:43:08.017Z,94841.00
2023-05-19T08:44:08.076Z,94837.00
2023-05-19T08:45:08.144Z,94839.00
2023-05-19T08:46:08.393Z,94839.00
2023-05-19T08:47:08.341Z,94839.00
2023-05-19T08:48:08.336Z,94837.00
2023-05-19T08:49:08.349Z,94839.00
2023-05-19T08:50:08.427Z,94835.00
2023-05-19T08:51:08.469Z,94835.00
2023-05-19T08:52:08.521Z,94835.00
2023-05-19T08:53:18.108Z,94831.00
2023-05-19T08:54:09.567Z,94829.00
2023-05-19T08:55:08.564Z,94827.00
2023-05-19T08:56:08.556Z,94824.00
2023-05-19T08:57:08.562Z,94820.00
2023-05-19T08:58:08.533Z,94820.00
2023-05-19T08:59:09.102Z,94812.00
2023-05-19T09:00:08.521Z,94814.00
2023-05-19T09:01:08.577Z,94816.00
2023-05-19T09:02:08.513Z,94814.00
2023-05-19T09:04:08.593Z,94816.00
2023-05-19T09:05:08.669Z,94818.00
2023-05-19T09:06:08.773Z,94816.00
2023-05-19T09:07:08.509Z,94816.00
2023-05-19T09:08:08.493Z,94816.00
2023-05-19T09:09:08.506Z,94814.00
2023-05-19T09:10:08.478Z,94808.00
2023-05-19T09:11:08.478Z,94808.00
2023-05-19T09:12:08.482Z,94808.00
2023-05-19T09:13:08.467Z,94806.00
2023-05-19T09:14:08.454Z,94806.00
2023-05-19T09:15:08.460Z,94802.00
2023-05-19T09:16:08.620Z,94804.00
2023-05-19T09:17:08.572Z,94804.00
2023-05-19T09:18:08.466Z,94798.00
2023-05-19T09:19:08.444Z,94798.00
2023-05-19T09:20:08.413Z,94798.00
2023-05-19T09:21:08.413Z,94796.00
2023-05-19T09:22:08.410Z,94796.00
2023-05-19T09:23:08.382Z,94798.00
2023-05-19T09:24:08.399Z,94796.00
2023-05-19T09:25:08.375Z,94794.00
2023-05-19T09:26:08.405Z,94788.00
2023-05-19T09:27:08.372Z,94790.00
2023-05-19T09:28:08.351Z,94788.00
2023-05-19T09:29:08.341Z,94784.00
2023-05-19T09:30:08.362Z,94784.00
2023-05-19T09:31:08.452Z,94784.00
2023-05-19T09:32:08.479Z,94782.00
2023-05-19T09:33:08.371Z,94782.00
2023-05-19T09:34:08.321Z,94780.00
2023-05-19T09:35:08.298Z,94780.00
2023-05-19T09:36:08.357Z,94778.00
2023-05-19T09:37:08.295Z,94777.00
2023-05-19T09:38:08.295Z,94777.00
2023-05-19T09:39:08.282Z,94775.00
2023-05-19T09:40:08.276Z,94777.00
2023-05-19T09:41:08.258Z,94775.00
2023-05-19T09:42:08.284Z,94773.00
2023-05-19T09:43:08.255Z,94771.00
2023-05-19T09:44:08.250Z,94771.00
2023-05-19T09:45:08.226Z,94769.00
2023-05-19T09:46:08.336Z,94767.00
2023-05-19T09:47:08.220Z,94771.00
2023-05-19T09:48:08.268Z,94765.00
2023-05-19T09:49:08.200Z,94763.00
2023-05-19T09:50:08.207Z,94759.00
2023-05-19T09:51:08.347Z,94761.00
2023-05-19T09:52:08.231Z,94759.00
2023-05-19T09:53:08.270Z,94755.00
2023-05-19T09:54:08.313Z,94755.00
2023-05-19T09:55:08.333Z,94753.00
2023-05-19T09:56:08.376Z,94751.00
2023-05-19T09:57:08.876Z,94755.00
2023-05-19T09:58:08.437Z,94749.00
2023-05-19T09:59:08.473Z,94751.00
2023-05-19T10:00:08.527Z,94747.00
2023-05-19T10:01:08.620Z,94745.00
2023-05-19T10:02:08.583Z,94741.00
2023-05-19T10:03:08.644Z,94737.00
2023-05-19T10:04:08.670Z,94737.00
2023-05-19T10:05:08.714Z,94737.00
2023-05-19T10:06:08.700Z,94739.00
2023-05-19T10:07:08.733Z,94737.00
2023-05-19T10:08:08.766Z,94735.00
2023-05-19T10:09:08.820Z,94731.00
2023-05-19T10:10:08.853Z,94727.00
2023-05-19T10:11:08.893Z,94727.00
2023-05-19T10:12:08.930Z,94725.00
2023-05-19T10:13:08.966Z,94725.00
2023-05-19T10:14:09.013Z,94722.00
2023-05-19T10:15:09.039Z,94723.00
2023-05-19T10:16:09.108Z,94720.00
2023-05-19T10:17:09.120Z,94718.00
2023-05-19T10:18:09.288Z,94720.00
2023-05-19T10:19:09.313Z,94720.00
2023-05-19T10:20:09.302Z,94720.00
2023-05-19T10:21:09.271Z,94720.00
2023-05-19T10:22:09.313Z,94720.00
2023-05-19T10:23:09.351Z,94720.00
2023-05-19T10:24:10.882Z,94722.00
2023-05-19T10:25:09.421Z,94718.00
2023-05-19T10:26:09.457Z,94716.00
2023-05-19T10:27:09.494Z,94714.00
2023-05-19T10:28:09.516Z,94714.00
2023-05-19T10:29:09.578Z,94708.00
2023-05-19T10:30:11.762Z,94706.00
2023-05-19T10:31:09.599Z,94704.00
2023-05-19T10:32:09.659Z,94700.00
2023-05-19T10:33:09.639Z,94698.00
2023-05-19T10:34:09.583Z,94698.00
2023-05-19T10:35:09.557Z,94696.00
2023-05-19T10:36:09.570Z,94694.00
2023-05-19T10:37:09.569Z,94692.00
2023-05-19T10:38:09.556Z,94692.00
2023-05-19T10:39:09.538Z,94690.00
2023-05-19T10:40:09.534Z,94688.00
2023-05-19T10:41:09.518Z,94686.00
2023-05-19T10:42:09.528Z,94686.00
2023-05-19T10:43:09.514Z,94686.00
2023-05-19T10:44:09.506Z,94684.00
2023-05-19T10:45:09.503Z,94684.00
2023-05-19T10:46:09.494Z,94686.00
2023-05-19T10:47:09.538Z,94684.00
2023-05-19T10:48:09.617Z,94686.00
2023-05-19T10:49:09.485Z,94684.00
2023-05-19T10:50:09.472Z,94684.00
2023-05-19T10:51:10.410Z,94684.00
2023-05-19T10:52:09.458Z,94684.00
2023-05-19T10:53:09.455Z,94684.00
2023-05-19T10:54:10.486Z,94682.00
2023-05-19T10:55:09.672Z,94680.00
2023-05-19T10:56:09.711Z,94678.00
2023-05-19T10:57:09.746Z,94676.00
2023-05-19T10:58:09.786Z,94675.00
2023-05-19T10:59:09.824Z,94676.00
2023-05-19T11:00:09.854Z,94673.00
2023-05-19T11:01:09.905Z,94673.00
2023-05-19T11:02:09.978Z,94673.00
2023-05-19T11:03:10.054Z,94671.00
2023-05-19T11:04:10.074Z,94671.00
2023-05-19T11:05:10.100Z,94669.00
2023-05-19T11:06:10.117Z,94667.00
2023-05-19T11:07:10.130Z,94667.00
2023-05-19T11:08:10.156Z,94669.00
2023-05-19T11:09:10.211Z,94667.00
2023-05-19T11:10:10.228Z,94669.00
2023-05-19T11:11:10.272Z,94665.00
2023-05-19T11:12:10.324Z,94665.00
2023-05-19T11:13:10.339Z,94667.00
2023-05-19T11:14:10.378Z,94663.00
2023-05-19T11:15:10.413Z,94661.00
2023-05-19T11:16:10.489Z,94659.00
2023-05-19T11:17:10.483Z,94659.00
2023-05-19T11:18:10.568Z,94659.00
2023-05-19T11:19:10.697Z,94657.00
2023-05-19T11:20:10.597Z,94653.00
2023-05-19T11:21:10.629Z,94653.00
2023-05-19T11:22:10.635Z,94653.00
2023-05-19T11:23:10.751Z,94651.00
2023-05-19T11:24:10.699Z,94649.00
2023-05-19T11:25:10.718Z,94645.00
2023-05-19T11:26:10.737Z,94641.00
2023-05-19T11:27:10.783Z,94641.00
2023-05-19T11:28:10.804Z,94641.00
2023-05-19T11:29:10.851Z,94643.00
2023-05-19T11:30:10.878Z,94639.00
2023-05-19T11:31:10.924Z,94641.00
2023-05-19T11:32:11.124Z,94639.00
2023-05-19T11:33:11.036Z,94637.00
2023-05-19T11:34:11.051Z,94637.00
2023-05-19T11:35:11.065Z,94637.00
2023-05-19T11:36:11.096Z,94628.00
2023-05-19T11:37:11.109Z,94626.00
2023-05-19T11:38:11.135Z,94624.00
2023-05-19T11:39:11.167Z,94620.00
2023-05-19T11:40:11.222Z,94622.00
2023-05-19T11:41:11.234Z,94616.00
2023-05-19T11:42:11.272Z,94612.00
2023-05-19T11:43:11.311Z,94612.00
2023-05-19T11:44:11.333Z,94610.00
2023-05-19T11:45:11.370Z,94608.00
2023-05-19T11:46:11.444Z,94608.00
2023-05-19T11:47:11.474Z,94610.00